PILOTS ONLINE: 341    ATC ONLINE: 49

KFHU

Sierra Vista Municipal Libby Army Air Field

Location

IATA FHU
City Fort Huachuca Sierra Vista
Country  United States
Latitude 31° 35' 18" N
Longitude 110° 20' 38" W
Elevation 4719 ft
Type Medium Airport

Map

Weather

METAR
2014/08/22 10:55
KFHU 221055Z 22003KT 10SM BKN120 18/16 A3015 RMK SLP159
TAF
2014/08/22 23:00
TAF 
      AMD KFHU 2123/2301 26009KT 9999 VCSH SCT080 BKN160 QNH3009INS 
      TEMPO 2123/2202 VRB20G30KT 9000 -TSRA BKN060CB OVC180 
      BECMG 2202/2203 27006KT 9999 NSW SCT100 BKN120 QNH3014INS 
      BECMG 2220/2221 28009KT 9999 VCTS SCT080CB SCT150 QNH3010INS TX27/2123Z TN17/2212Z COR 212350

Runways

03/21 4285 ft / 75 ft
08/26 12001 ft / 150 ft
12/30 5366 ft / 100 ft

Outbound flights

Callsign Flying to Pilot ATD/STD ETA Aircraft

Inbound flights

Callsign Flying from Pilot ATD ETA Aircraft